sensor_id;sensor_type;location;lat;lon;timestamp;temperature;humidity
9371;DHT22;4725;48.384;8.984;2023-08-21T00:01:46;20.70;99.90
9371;DHT22;4725;48.384;8.984;2023-08-21T00:04:13;20.80;99.90
9371;DHT22;4725;48.384;8.984;2023-08-21T00:06:40;20.80;99.90
9371;DHT22;4725;48.384;8.984;2023-08-21T00:09:07;20.90;99.90
9371;DHT22;4725;48.384;8.984;2023-08-21T00:11:34;20.90;99.90
9371;DHT22;4725;48.384;8.984;2023-08-21T00:14:01;20.90;99.90
9371;DHT22;4725;48.384;8.984;2023-08-21T00:16:29;20.90;99.90
9371;DHT22;4725;48.384;8.984;2023-08-21T00:21:23;20.70;99.90
9371;DHT22;4725;48.384;8.984;2023-08-21T00:23:50;20.70;99.90
9371;DHT22;4725;48.384;8.984;2023-08-21T00:26:17;20.70;99.90
9371;DHT22;4725;48.384;8.984;2023-08-21T00:28:44;20.70;99.90
9371;DHT22;4725;48.384;8.984;2023-08-21T00:31:11;20.60;99.90
9371;DHT22;4725;48.384;8.984;2023-08-21T00:33:39;20.70;99.90
9371;DHT22;4725;48.384;8.984;2023-08-21T00:36:06;20.80;99.90
9371;DHT22;4725;48.384;8.984;2023-08-21T00:38:33;20.70;99.90
9371;DHT22;4725;48.384;8.984;2023-08-21T00:41:00;20.70;99.90
9371;DHT22;4725;48.384;8.984;2023-08-21T00:43:26;20.70;99.90
9371;DHT22;4725;48.384;8.984;2023-08-21T00:45:53;20.60;99.90
9371;DHT22;4725;48.384;8.984;2023-08-21T00:48:21;20.50;99.90
9371;DHT22;4725;48.384;8.984;2023-08-21T00:50:50;20.70;99.90
9371;DHT22;4725;48.384;8.984;2023-08-21T00:53:17;20.50;99.90
9371;DHT22;4725;48.384;8.984;2023-08-21T00:55:45;20.50;99.90
9371;DHT22;4725;48.384;8.984;2023-08-21T00:58:12;20.50;99.90
9371;DHT22;4725;48.384;8.984;2023-08-21T01:00:41;21.60;99.90
9371;DHT22;4725;48.384;8.984;2023-08-21T01:03:08;20.20;99.90
9371;DHT22;4725;48.384;8.984;2023-08-21T01:05:35;20.20;99.90
9371;DHT22;4725;48.384;8.984;2023-08-21T01:08:10;20.10;99.90
9371;DHT22;4725;48.384;8.984;2023-08-21T01:10:45;20.20;99.90
9371;DHT22;4725;48.384;8.984;2023-08-21T01:13:19;20.10;99.90
9371;DHT22;4725;48.384;8.984;2023-08-21T01:15:50;20.10;99.90
9371;DHT22;4725;48.384;8.984;2023-08-21T01:18:18;20.10;99.90
9371;DHT22;4725;48.384;8.984;2023-08-21T01:20:46;20.00;99.90
9371;DHT22;4725;48.384;8.984;2023-08-21T01:23:28;20.10;99.90
9371;DHT22;4725;48.384;8.984;2023-08-21T01:25:55;20.00;99.90
9371;DHT22;4725;48.384;8.984;2023-08-21T01:28:22;20.10;99.90
9371;DHT22;4725;48.384;8.984;2023-08-21T01:30:51;20.00;99.90
9371;DHT22;4725;48.384;8.984;2023-08-21T01:33:21;20.00;99.90
9371;DHT22;4725;48.384;8.984;2023-08-21T01:35:50;20.00;99.90
9371;DHT22;4725;48.384;8.984;2023-08-21T01:38:18;20.00;99.90
9371;DHT22;4725;48.384;8.984;2023-08-21T01:40:48;19.90;99.90
9371;DHT22;4725;48.384;8.984;2023-08-21T01:43:15;19.80;99.90
9371;DHT22;4725;48.384;8.984;2023-08-21T01:45:42;19.80;99.90
9371;DHT22;4725;48.384;8.984;2023-08-21T01:48:09;19.70;99.90
9371;DHT22;4725;48.384;8.984;2023-08-21T01:50:35;19.60;99.90
9371;DHT22;4725;48.384;8.984;2023-08-21T01:53:02;19.30;99.90
9371;DHT22;4725;48.384;8.984;2023-08-21T01:55:29;19.20;99.90
9371;DHT22;4725;48.384;8.984;2023-08-21T01:57:57;19.10;99.90
9371;DHT22;4725;48.384;8.984;2023-08-21T02:00:24;19.10;99.90
9371;DHT22;4725;48.384;8.984;2023-08-21T02:02:51;19.00;99.90
9371;DHT22;4725;48.384;8.984;2023-08-21T02:05:18;19.10;99.90
9371;DHT22;4725;48.384;8.984;2023-08-21T02:07:45;19.10;99.90
9371;DHT22;4725;48.384;8.984;2023-08-21T02:10:12;19.10;99.90
9371;DHT22;4725;48.384;8.984;2023-08-21T02:12:39;19.00;99.90
9371;DHT22;4725;48.384;8.984;2023-08-21T02:15:08;19.00;99.90
9371;DHT22;4725;48.384;8.984;2023-08-21T02:17:35;19.00;99.90
9371;DHT22;4725;48.384;8.984;2023-08-21T02:20:03;19.10;99.90
9371;DHT22;4725;48.384;8.984;2023-08-21T02:22:30;19.20;99.90
9371;DHT22;4725;48.384;8.984;2023-08-21T02:24:56;19.10;99.90
9371;DHT22;4725;48.384;8.984;2023-08-21T02:27:23;19.10;99.90
9371;DHT22;4725;48.384;8.984;2023-08-21T02:29:50;19.20;99.90
9371;DHT22;4725;48.384;8.984;2023-08-21T02:32:18;19.30;99.90
9371;DHT22;4725;48.384;8.984;2023-08-21T02:34:45;19.30;99.90
9371;DHT22;4725;48.384;8.984;2023-08-21T02:37:12;19.30;99.90
9371;DHT22;4725;48.384;8.984;2023-08-21T02:39:39;19.10;99.90
9371;DHT22;4725;48.384;8.984;2023-08-21T02:42:06;18.90;99.90
9371;DHT22;4725;48.384;8.984;2023-08-21T02:44:33;18.80;99.90
9371;DHT22;4725;48.384;8.984;2023-08-21T02:47:00;18.80;99.90
9371;DHT22;4725;48.384;8.984;2023-08-21T02:49:28;18.80;99.90
9371;DHT22;4725;48.384;8.984;2023-08-21T02:51:55;18.90;99.90
9371;DHT22;4725;48.384;8.984;2023-08-21T02:54:22;19.00;99.90
9371;DHT22;4725;48.384;8.984;2023-08-21T02:56:48;19.10;99.90
9371;DHT22;4725;48.384;8.984;2023-08-21T02:59:15;19.20;99.90
9371;DHT22;4725;48.384;8.984;2023-08-21T03:01:42;19.20;99.90
9371;DHT22;4725;48.384;8.984;2023-08-21T03:04:09;19.20;99.90
9371;DHT22;4725;48.384;8.984;2023-08-21T03:06:37;19.30;99.90
9371;DHT22;4725;48.384;8.984;2023-08-21T03:09:04;19.30;99.90
9371;DHT22;4725;48.384;8.984;2023-08-21T03:11:31;19.30;99.90
9371;DHT22;4725;48.384;8.984;2023-08-21T03:13:58;19.30;99.90
9371;DHT22;4725;48.384;8.984;2023-08-21T03:16:24;19.30;99.90
9371;DHT22;4725;48.384;8.984;2023-08-21T03:18:56;19.30;99.90
9371;DHT22;4725;48.384;8.984;2023-08-21T03:21:23;19.20;99.90
9371;DHT22;4725;48.384;8.984;2023-08-21T03:23:53;19.20;99.90
9371;DHT22;4725;48.384;8.984;2023-08-21T03:26:20;19.10;99.90
9371;DHT22;4725;48.384;8.984;2023-08-21T03:28:47;19.10;99.90
9371;DHT22;4725;48.384;8.984;2023-08-21T03:31:14;19.10;99.90
9371;DHT22;4725;48.384;8.984;2023-08-21T03:33:41;19.10;99.90
9371;DHT22;4725;48.384;8.984;2023-08-21T03:36:08;19.10;99.90
9371;DHT22;4725;48.384;8.984;2023-08-21T03:38:35;19.10;99.90
9371;DHT22;4725;48.384;8.984;2023-08-21T03:41:03;19.10;99.90
9371;DHT22;4725;48.384;8.984;2023-08-21T03:43:31;19.10;99.90
9371;DHT22;4725;48.384;8.984;2023-08-21T03:45:58;19.20;99.90
9371;DHT22;4725;48.384;8.984;2023-08-21T03:48:25;19.20;99.90
9371;DHT22;4725;48.384;8.984;2023-08-21T03:50:52;19.20;99.90
9371;DHT22;4725;48.384;8.984;2023-08-21T03:53:19;19.20;99.90
9371;DHT22;4725;48.384;8.984;2023-08-21T03:55:46;19.20;99.90
9371;DHT22;4725;48.384;8.984;2023-08-21T03:58:14;19.10;99.90
9371;DHT22;4725;48.384;8.984;2023-08-21T04:00:41;19.00;99.90
9371;DHT22;4725;48.384;8.984;2023-08-21T04:03:08;18.80;99.90
9371;DHT22;4725;48.384;8.984;2023-08-21T04:05:35;18.60;99.90
9371;DHT22;4725;48.384;8.984;2023-08-21T04:08:02;18.50;99.90
9371;DHT22;4725;48.384;8.984;2023-08-21T04:10:29;18.50;99.90
9371;DHT22;4725;48.384;8.984;2023-08-21T04:12:56;18.40;99.90
9371;DHT22;4725;48.384;8.984;2023-08-21T04:15:25;18.30;99.90
9371;DHT22;4725;48.384;8.984;2023-08-21T04:17:51;18.30;99.90
9371;DHT22;4725;48.384;8.984;2023-08-21T04:20:20;18.20;99.90
9371;DHT22;4725;48.384;8.984;2023-08-21T04:22:47;18.10;99.90
9371;DHT22;4725;48.384;8.984;2023-08-21T04:25:14;18.20;99.90
9371;DHT22;4725;48.384;8.984;2023-08-21T04:27:41;18.10;99.90
9371;DHT22;4725;48.384;8.984;2023-08-21T04:30:09;18.20;99.90
9371;DHT22;4725;48.384;8.984;2023-08-21T04:32:37;18.30;99.90
9371;DHT22;4725;48.384;8.984;2023-08-21T04:35:05;18.40;99.90
9371;DHT22;4725;48.384;8.984;2023-08-21T04:37:33;18.50;99.90
9371;DHT22;4725;48.384;8.984;2023-08-21T04:40:00;18.50;99.90
9371;DHT22;4725;48.384;8.984;2023-08-21T04:42:27;18.70;99.90
9371;DHT22;4725;48.384;8.984;2023-08-21T04:44:54;18.80;99.90
9371;DHT22;4725;48.384;8.984;2023-08-21T04:47:22;18.80;99.90
9371;DHT22;4725;48.384;8.984;2023-08-21T04:49:51;18.80;99.90
9371;DHT22;4725;48.384;8.984;2023-08-21T04:52:18;18.90;99.90
9371;DHT22;4725;48.384;8.984;2023-08-21T04:54:45;19.00;99.90
9371;DHT22;4725;48.384;8.984;2023-08-21T04:57:12;19.00;99.90
9371;DHT22;4725;48.384;8.984;2023-08-21T04:59:39;19.00;99.90
9371;DHT22;4725;48.384;8.984;2023-08-21T05:02:06;19.00;99.90
9371;DHT22;4725;48.384;8.984;2023-08-21T05:07:03;19.10;99.90
9371;DHT22;4725;48.384;8.984;2023-08-21T05:09:30;19.20;99.90
9371;DHT22;4725;48.384;8.984;2023-08-21T05:11:57;19.10;99.90
9371;DHT22;4725;48.384;8.984;2023-08-21T05:14:24;19.00;99.90
9371;DHT22;4725;48.384;8.984;2023-08-21T05:16:51;15.50;99.90
9371;DHT22;4725;48.384;8.984;2023-08-21T05:19:18;19.00;99.90
9371;DHT22;4725;48.384;8.984;2023-08-21T05:21:45;19.00;99.90
9371;DHT22;4725;48.384;8.984;2023-08-21T05:24:14;19.00;99.90
9371;DHT22;4725;48.384;8.984;2023-08-21T05:26:41;19.10;99.90
9371;DHT22;4725;48.384;8.984;2023-08-21T05:29:08;19.20;99.90
9371;DHT22;4725;48.384;8.984;2023-08-21T05:31:35;19.30;99.90
9371;DHT22;4725;48.384;8.984;2023-08-21T05:34:03;19.40;99.90
9371;DHT22;4725;48.384;8.984;2023-08-21T05:36:30;19.60;99.90
9371;DHT22;4725;48.384;8.984;2023-08-21T05:38:57;19.60;99.90
9371;DHT22;4725;48.384;8.984;2023-08-21T05:41:25;19.70;99.90
9371;DHT22;4725;48.384;8.984;2023-08-21T05:43:52;19.90;99.90
9371;DHT22;4725;48.384;8.984;2023-08-21T05:46:19;20.10;99.90
9371;DHT22;4725;48.384;8.984;2023-08-21T05:48:45;20.10;99.90
9371;DHT22;4725;48.384;8.984;2023-08-21T05:51:12;20.20;99.90
9371;DHT22;4725;48.384;8.984;2023-08-21T05:53:39;20.30;99.90
9371;DHT22;4725;48.384;8.984;2023-08-21T05:56:06;20.40;99.90
9371;DHT22;4725;48.384;8.984;2023-08-21T05:58:35;20.40;99.90
9371;DHT22;4725;48.384;8.984;2023-08-21T06:01:01;20.50;99.90
9371;DHT22;4725;48.384;8.984;2023-08-21T06:03:28;20.60;99.90
9371;DHT22;4725;48.384;8.984;2023-08-21T06:05:55;20.80;99.90
9371;DHT22;4725;48.384;8.984;2023-08-21T06:10:51;20.90;99.90
9371;DHT22;4725;48.384;8.984;2023-08-21T06:13:18;21.00;99.90
9371;DHT22;4725;48.384;8.984;2023-08-21T06:18:13;21.10;99.90
9371;DHT22;4725;48.384;8.984;2023-08-21T06:20:42;21.30;99.90
9371;DHT22;4725;48.384;8.984;2023-08-21T06:23:09;21.40;99.90
9371;DHT22;4725;48.384;8.984;2023-08-21T06:25:36;21.50;99.90
9371;DHT22;4725;48.384;8.984;2023-08-21T06:28:03;21.50;99.90
9371;DHT22;4725;48.384;8.984;2023-08-21T06:30:30;21.70;99.90
9371;DHT22;4725;48.384;8.984;2023-08-21T06:32:58;21.70;99.90
9371;DHT22;4725;48.384;8.984;2023-08-21T06:35:25;21.80;99.90
9371;DHT22;4725;48.384;8.984;2023-08-21T06:37:52;21.90;99.90
9371;DHT22;4725;48.384;8.984;2023-08-21T06:40:20;22.00;99.90
9371;DHT22;4725;48.384;8.984;2023-08-21T06:42:46;22.00;99.90
9371;DHT22;4725;48.384;8.984;2023-08-21T06:45:14;22.10;99.90
9371;DHT22;4725;48.384;8.984;2023-08-21T06:47:41;22.20;99.90
9371;DHT22;4725;48.384;8.984;2023-08-21T06:50:10;22.30;99.90
9371;DHT22;4725;48.384;8.984;2023-08-21T06:52:37;22.40;99.90
9371;DHT22;4725;48.384;8.984;2023-08-21T06:55:04;22.60;99.90
9371;DHT22;4725;48.384;8.984;2023-08-21T06:57:31;22.60;99.90
9371;DHT22;4725;48.384;8.984;2023-08-21T06:59:58;22.80;99.90
9371;DHT22;4725;48.384;8.984;2023-08-21T07:02:25;22.90;99.90
9371;DHT22;4725;48.384;8.984;2023-08-21T07:04:52;23.00;99.90
9371;DHT22;4725;48.384;8.984;2023-08-21T07:07:20;23.00;99.90
9371;DHT22;4725;48.384;8.984;2023-08-21T07:09:48;23.10;99.90
9371;DHT22;4725;48.384;8.984;2023-08-21T07:12:15;23.20;99.90
9371;DHT22;4725;48.384;8.984;2023-08-21T07:14:42;23.40;99.90
9371;DHT22;4725;48.384;8.984;2023-08-21T07:17:09;23.40;99.90
9371;DHT22;4725;48.384;8.984;2023-08-21T07:19:36;23.60;99.90
9371;DHT22;4725;48.384;8.984;2023-08-21T07:22:03;23.60;99.90
9371;DHT22;4725;48.384;8.984;2023-08-21T07:26:58;23.90;99.90
9371;DHT22;4725;48.384;8.984;2023-08-21T07:29:25;24.00;99.90
9371;DHT22;4725;48.384;8.984;2023-08-21T07:31:52;24.10;99.90
9371;DHT22;4725;48.384;8.984;2023-08-21T07:34:19;24.30;99.90
9371;DHT22;4725;48.384;8.984;2023-08-21T07:36:45;24.40;99.90
9371;DHT22;4725;48.384;8.984;2023-08-21T07:39:12;24.50;99.90
9371;DHT22;4725;48.384;8.984;2023-08-21T07:44:08;24.90;99.90
9371;DHT22;4725;48.384;8.984;2023-08-21T07:46:35;24.90;99.90
9371;DHT22;4725;48.384;8.984;2023-08-21T07:49:02;25.00;99.90
9371;DHT22;4725;48.384;8.984;2023-08-21T07:51:29;25.20;99.90
9371;DHT22;4725;48.384;8.984;2023-08-21T07:53:55;25.30;99.90
9371;DHT22;4725;48.384;8.984;2023-08-21T07:56:22;25.50;99.90
9371;DHT22;4725;48.384;8.984;2023-08-21T07:58:50;25.40;99.90
9371;DHT22;4725;48.384;8.984;2023-08-21T08:01:17;25.60;99.90
9371;DHT22;4725;48.384;8.984;2023-08-21T08:03:46;25.80;99.90
9371;DHT22;4725;48.384;8.984;2023-08-21T08:06:14;26.00;99.90
9371;DHT22;4725;48.384;8.984;2023-08-21T08:08:41;26.10;99.90
9371;DHT22;4725;48.384;8.984;2023-08-21T08:11:08;26.10;99.90
9371;DHT22;4725;48.384;8.984;2023-08-21T08:13:35;26.20;99.90
9371;DHT22;4725;48.384;8.984;2023-08-21T08:16:03;26.50;99.90
9371;DHT22;4725;48.384;8.984;2023-08-21T08:18:30;26.60;99.90
9371;DHT22;4725;48.384;8.984;2023-08-21T08:20:57;26.60;99.90
9371;DHT22;4725;48.384;8.984;2023-08-21T08:23:27;26.70;99.90
9371;DHT22;4725;48.384;8.984;2023-08-21T08:25:54;26.80;99.90
9371;DHT22;4725;48.384;8.984;2023-08-21T08:28:20;26.80;99.90
9371;DHT22;4725;48.384;8.984;2023-08-21T08:30:47;26.90;99.90
9371;DHT22;4725;48.384;8.984;2023-08-21T08:33:15;27.10;99.90
9371;DHT22;4725;48.384;8.984;2023-08-21T08:35:43;27.00;99.90
9371;DHT22;4725;48.384;8.984;2023-08-21T08:38:10;27.10;99.90
9371;DHT22;4725;48.384;8.984;2023-08-21T08:40:43;27.20;99.90
9371;DHT22;4725;48.384;8.984;2023-08-21T08:43:10;27.40;99.90
9371;DHT22;4725;48.384;8.984;2023-08-21T08:45:37;27.50;99.90
9371;DHT22;4725;48.384;8.984;2023-08-21T08:48:06;27.60;99.90
9371;DHT22;4725;48.384;8.984;2023-08-21T09:08:55;28.60;99.90
9371;DHT22;4725;48.384;8.984;2023-08-21T09:11:22;28.60;99.90
9371;DHT22;4725;48.384;8.984;2023-08-21T09:13:50;28.00;99.90
9371;DHT22;4725;48.384;8.984;2023-08-21T09:16:17;28.40;99.90
9371;DHT22;4725;48.384;8.984;2023-08-21T09:18:48;28.60;99.90
9371;DHT22;4725;48.384;8.984;2023-08-21T09:21:18;28.80;99.90
9371;DHT22;4725;48.384;8.984;2023-08-21T09:23:45;28.80;99.90
9371;DHT22;4725;48.384;8.984;2023-08-21T09:26:20;29.00;99.90
9371;DHT22;4725;48.384;8.984;2023-08-21T09:28:47;29.00;99.90
9371;DHT22;4725;48.384;8.984;2023-08-21T09:31:15;29.00;99.90
9371;DHT22;4725;48.384;8.984;2023-08-21T09:33:42;29.10;99.90
9371;DHT22;4725;48.384;8.984;2023-08-21T09:36:09;29.20;99.90
9371;DHT22;4725;48.384;8.984;2023-08-21T09:38:38;29.30;99.90
9371;DHT22;4725;48.384;8.984;2023-08-21T09:41:06;29.30;99.90
9371;DHT22;4725;48.384;8.984;2023-08-21T09:43:41;29.40;99.90
9371;DHT22;4725;48.384;8.984;2023-08-21T09:46:08;29.50;99.90
9371;DHT22;4725;48.384;8.984;2023-08-21T09:48:35;29.60;99.90
9371;DHT22;4725;48.384;8.984;2023-08-21T09:51:03;29.70;99.90
9371;DHT22;4725;48.384;8.984;2023-08-21T09:53:30;29.70;99.90
9371;DHT22;4725;48.384;8.984;2023-08-21T09:56:00;29.60;99.90
9371;DHT22;4725;48.384;8.984;2023-08-21T09:58:28;30.10;99.90
9371;DHT22;4725;48.384;8.984;2023-08-21T10:00:58;30.20;99.90
9371;DHT22;4725;48.384;8.984;2023-08-21T10:03:26;30.60;99.90
9371;DHT22;4725;48.384;8.984;2023-08-21T10:05:55;30.50;99.90
9371;DHT22;4725;48.384;8.984;2023-08-21T10:08:25;30.90;99.90
9371;DHT22;4725;48.384;8.984;2023-08-21T10:10:52;31.10;99.90
9371;DHT22;4725;48.384;8.984;2023-08-21T10:13:19;31.30;99.90
9371;DHT22;4725;48.384;8.984;2023-08-21T10:15:46;31.30;99.90
9371;DHT22;4725;48.384;8.984;2023-08-21T10:18:23;31.50;99.90
9371;DHT22;4725;48.384;8.984;2023-08-21T10:20:51;31.50;99.90
9371;DHT22;4725;48.384;8.984;2023-08-21T10:23:25;31.40;99.90
9371;DHT22;4725;48.384;8.984;2023-08-21T10:25:55;31.80;99.90
9371;DHT22;4725;48.384;8.984;2023-08-21T10:28:22;32.00;99.90
9371;DHT22;4725;48.384;8.984;2023-08-21T10:30:49;32.10;99.90
9371;DHT22;4725;48.384;8.984;2023-08-21T10:33:17;32.20;99.90
9371;DHT22;4725;48.384;8.984;2023-08-21T10:35:46;32.50;99.90
9371;DHT22;4725;48.384;8.984;2023-08-21T10:38:14;32.50;99.90
9371;DHT22;4725;48.384;8.984;2023-08-21T10:41:05;32.50;99.90
9371;DHT22;4725;48.384;8.984;2023-08-21T10:43:39;32.50;99.90
9371;DHT22;4725;48.384;8.984;2023-08-21T10:46:06;32.60;99.90
9371;DHT22;4725;48.384;8.984;2023-08-21T10:48:34;32.40;99.90
9371;DHT22;4725;48.384;8.984;2023-08-21T10:51:04;32.40;99.90
9371;DHT22;4725;48.384;8.984;2023-08-21T10:53:31;32.60;99.90
9371;DHT22;4725;48.384;8.984;2023-08-21T10:56:01;32.70;99.90
9371;DHT22;4725;48.384;8.984;2023-08-21T10:58:29;32.80;99.90
9371;DHT22;4725;48.384;8.984;2023-08-21T11:01:00;32.90;99.90
9371;DHT22;4725;48.384;8.984;2023-08-21T11:03:28;32.90;99.90
9371;DHT22;4725;48.384;8.984;2023-08-21T11:06:04;33.20;99.90
9371;DHT22;4725;48.384;8.984;2023-08-21T11:08:32;33.20;99.90
9371;DHT22;4725;48.384;8.984;2023-08-21T11:10:59;33.10;99.90
9371;DHT22;4725;48.384;8.984;2023-08-21T11:13:26;32.90;99.90
9371;DHT22;4725;48.384;8.984;2023-08-21T11:15:59;33.20;99.90
9371;DHT22;4725;48.384;8.984;2023-08-21T11:18:32;33.10;99.90
9371;DHT22;4725;48.384;8.984;2023-08-21T11:21:08;33.10;99.90
9371;DHT22;4725;48.384;8.984;2023-08-21T11:23:37;33.20;99.90
9371;DHT22;4725;48.384;8.984;2023-08-21T11:26:05;33.20;99.90
9371;DHT22;4725;48.384;8.984;2023-08-21T11:28:33;33.30;99.90
9371;DHT22;4725;48.384;8.984;2023-08-21T11:30:59;33.00;99.90
9371;DHT22;4725;48.384;8.984;2023-08-21T11:33:27;33.40;99.90
9371;DHT22;4725;48.384;8.984;2023-08-21T11:35:55;33.90;99.90
9371;DHT22;4725;48.384;8.984;2023-08-21T11:38:26;34.10;99.50
9371;DHT22;4725;48.384;8.984;2023-08-21T11:40:54;34.00;99.90
9371;DHT22;4725;48.384;8.984;2023-08-21T11:43:22;34.10;99.40
9371;DHT22;4725;48.384;8.984;2023-08-21T11:45:49;34.10;99.10
9371;DHT22;4725;48.384;8.984;2023-08-21T11:48:19;34.10;98.40
9371;DHT22;4725;48.384;8.984;2023-08-21T11:50:48;34.00;99.70
9371;DHT22;4725;48.384;8.984;2023-08-21T11:53:15;34.40;98.20
9371;DHT22;4725;48.384;8.984;2023-08-21T11:55:43;35.00;97.90
9371;DHT22;4725;48.384;8.984;2023-08-21T11:58:10;35.70;96.70
9371;DHT22;4725;48.384;8.984;2023-08-21T12:00:40;35.80;96.80
9371;DHT22;4725;48.384;8.984;2023-08-21T12:03:06;35.70;96.70
9371;DHT22;4725;48.384;8.984;2023-08-21T12:05:42;35.70;97.00
9371;DHT22;4725;48.384;8.984;2023-08-21T12:08:10;35.90;97.10
9371;DHT22;4725;48.384;8.984;2023-08-21T12:10:37;35.60;97.40
9371;DHT22;4725;48.384;8.984;2023-08-21T12:13:05;36.00;97.20
9371;DHT22;4725;48.384;8.984;2023-08-21T12:15:32;36.00;97.00
9371;DHT22;4725;48.384;8.984;2023-08-21T12:18:00;35.70;97.00
9371;DHT22;4725;48.384;8.984;2023-08-21T12:20:27;35.70;97.10
9371;DHT22;4725;48.384;8.984;2023-08-21T12:22:55;36.00;95.70
9371;DHT22;4725;48.384;8.984;2023-08-21T12:25:21;36.30;96.60
9371;DHT22;4725;48.384;8.984;2023-08-21T12:27:49;36.60;95.70
9371;DHT22;4725;48.384;8.984;2023-08-21T12:30:17;36.70;95.40
9371;DHT22;4725;48.384;8.984;2023-08-21T12:32:45;37.00;95.40
9371;DHT22;4725;48.384;8.984;2023-08-21T12:35:13;36.10;95.40
9371;DHT22;4725;48.384;8.984;2023-08-21T12:40:07;35.70;95.80
9371;DHT22;4725;48.384;8.984;2023-08-21T12:42:34;36.20;95.90
9371;DHT22;4725;48.384;8.984;2023-08-21T12:45:01;36.30;95.70
9371;DHT22;4725;48.384;8.984;2023-08-21T12:47:29;37.00;94.30
9371;DHT22;4725;48.384;8.984;2023-08-21T12:49:56;36.70;93.80
9371;DHT22;4725;48.384;8.984;2023-08-21T12:52:23;37.10;93.70
9371;DHT22;4725;48.384;8.984;2023-08-21T12:54:52;37.30;93.40
9371;DHT22;4725;48.384;8.984;2023-08-21T12:57:19;37.30;93.50
9371;DHT22;4725;48.384;8.984;2023-08-21T13:02:20;37.80;92.40
9371;DHT22;4725;48.384;8.984;2023-08-21T13:07:19;37.90;92.90
9371;DHT22;4725;48.384;8.984;2023-08-21T13:09:47;37.60;92.60
9371;DHT22;4725;48.384;8.984;2023-08-21T13:12:15;37.80;93.00
9371;DHT22;4725;48.384;8.984;2023-08-21T13:14:43;37.00;93.70
9371;DHT22;4725;48.384;8.984;2023-08-21T13:19:43;36.90;94.10
9371;DHT22;4725;48.384;8.984;2023-08-21T13:29:40;37.50;92.80
9371;DHT22;4725;48.384;8.984;2023-08-21T13:32:07;37.30;93.30
9371;DHT22;4725;48.384;8.984;2023-08-21T13:34:34;37.90;92.60
9371;DHT22;4725;48.384;8.984;2023-08-21T13:37:01;37.50;92.60
9371;DHT22;4725;48.384;8.984;2023-08-21T13:39:29;37.60;92.40
9371;DHT22;4725;48.384;8.984;2023-08-21T13:41:56;38.00;93.00
9371;DHT22;4725;48.384;8.984;2023-08-21T13:44:23;38.50;91.80
9371;DHT22;4725;48.384;8.984;2023-08-21T13:46:50;37.80;92.30
9371;DHT22;4725;48.384;8.984;2023-08-21T13:49:17;37.50;92.80
9371;DHT22;4725;48.384;8.984;2023-08-21T13:51:44;37.00;93.20
9371;DHT22;4725;48.384;8.984;2023-08-21T13:54:11;37.40;93.00
9371;DHT22;4725;48.384;8.984;2023-08-21T13:56:39;37.90;92.20
9371;DHT22;4725;48.384;8.984;2023-08-21T13:59:06;38.40;91.10
9371;DHT22;4725;48.384;8.984;2023-08-21T14:01:33;39.10;91.10
9371;DHT22;4725;48.384;8.984;2023-08-21T14:04:00;39.30;90.20
9371;DHT22;4725;48.384;8.984;2023-08-21T14:06:28;38.80;90.50
9371;DHT22;4725;48.384;8.984;2023-08-21T14:08:55;38.60;89.80
9371;DHT22;4725;48.384;8.984;2023-08-21T14:11:22;38.60;89.20
9371;DHT22;4725;48.384;8.984;2023-08-21T14:13:50;39.10;90.10
9371;DHT22;4725;48.384;8.984;2023-08-21T14:16:17;40.00;90.40
9371;DHT22;4725;48.384;8.984;2023-08-21T14:18:44;39.10;90.40
9371;DHT22;4725;48.384;8.984;2023-08-21T14:21:10;38.60;91.00
9371;DHT22;4725;48.384;8.984;2023-08-21T14:23:37;38.30;91.50
9371;DHT22;4725;48.384;8.984;2023-08-21T14:26:05;38.00;91.00
9371;DHT22;4725;48.384;8.984;2023-08-21T14:28:32;38.50;90.00
9371;DHT22;4725;48.384;8.984;2023-08-21T14:31:00;38.60;91.00
9371;DHT22;4725;48.384;8.984;2023-08-21T14:33:27;39.50;89.10
9371;DHT22;4725;48.384;8.984;2023-08-21T14:35:53;39.90;88.50
9371;DHT22;4725;48.384;8.984;2023-08-21T14:38:20;39.60;85.80
9371;DHT22;4725;48.384;8.984;2023-08-21T14:40:47;39.50;88.20
9371;DHT22;4725;48.384;8.984;2023-08-21T14:43:14;38.60;88.60
9371;DHT22;4725;48.384;8.984;2023-08-21T14:45:41;38.40;88.80
9371;DHT22;4725;48.384;8.984;2023-08-21T14:48:09;39.50;87.50
9371;DHT22;4725;48.384;8.984;2023-08-21T14:50:36;39.40;88.70
9371;DHT22;4725;48.384;8.984;2023-08-21T14:53:03;39.80;88.70
9371;DHT22;4725;48.384;8.984;2023-08-21T14:55:30;40.60;87.20
9371;DHT22;4725;48.384;8.984;2023-08-21T14:57:57;41.10;84.00
9371;DHT22;4725;48.384;8.984;2023-08-21T15:00:24;41.20;83.90
9371;DHT22;4725;48.384;8.984;2023-08-21T15:02:51;41.00;84.00
9371;DHT22;4725;48.384;8.984;2023-08-21T15:05:19;40.90;84.90
9371;DHT22;4725;48.384;8.984;2023-08-21T15:07:47;40.70;83.50
9371;DHT22;4725;48.384;8.984;2023-08-21T15:10:14;40.70;84.60
9371;DHT22;4725;48.384;8.984;2023-08-21T15:12:41;41.00;84.10
9371;DHT22;4725;48.384;8.984;2023-08-21T15:15:09;39.80;85.90
9371;DHT22;4725;48.384;8.984;2023-08-21T15:17:37;39.90;84.90
9371;DHT22;4725;48.384;8.984;2023-08-21T15:20:04;40.70;83.90
9371;DHT22;4725;48.384;8.984;2023-08-21T15:22:34;40.80;83.70
9371;DHT22;4725;48.384;8.984;2023-08-21T15:25:00;40.80;84.50
9371;DHT22;4725;48.384;8.984;2023-08-21T15:27:28;40.60;82.90
9371;DHT22;4725;48.384;8.984;2023-08-21T15:29:55;39.70;84.00
9371;DHT22;4725;48.384;8.984;2023-08-21T15:32:22;39.00;86.50
9371;DHT22;4725;48.384;8.984;2023-08-21T15:34:49;39.10;86.10
9371;DHT22;4725;48.384;8.984;2023-08-21T15:37:16;38.30;87.20
9371;DHT22;4725;48.384;8.984;2023-08-21T15:39:44;38.20;87.20
9371;DHT22;4725;48.384;8.984;2023-08-21T15:42:11;39.10;87.10
9371;DHT22;4725;48.384;8.984;2023-08-21T15:44:38;38.70;85.50
9371;DHT22;4725;48.384;8.984;2023-08-21T15:47:05;39.50;87.90
9371;DHT22;4725;48.384;8.984;2023-08-21T15:49:31;40.20;83.20
9371;DHT22;4725;48.384;8.984;2023-08-21T15:51:58;39.50;85.00
9371;DHT22;4725;48.384;8.984;2023-08-21T15:54:30;39.20;86.50
9371;DHT22;4725;48.384;8.984;2023-08-21T15:56:58;39.20;84.90
9371;DHT22;4725;48.384;8.984;2023-08-21T15:59:25;37.90;87.10
9371;DHT22;4725;48.384;8.984;2023-08-21T16:01:52;37.30;89.50
9371;DHT22;4725;48.384;8.984;2023-08-21T16:04:19;37.60;89.70
9371;DHT22;4725;48.384;8.984;2023-08-21T16:06:47;37.90;88.80
9371;DHT22;4725;48.384;8.984;2023-08-21T16:09:14;38.40;86.90
9371;DHT22;4725;48.384;8.984;2023-08-21T16:11:41;38.40;88.50
9371;DHT22;4725;48.384;8.984;2023-08-21T16:14:09;38.20;88.70
9371;DHT22;4725;48.384;8.984;2023-08-21T16:16:36;38.60;87.60
9371;DHT22;4725;48.384;8.984;2023-08-21T16:19:03;38.80;86.50
9371;DHT22;4725;48.384;8.984;2023-08-21T16:21:30;38.80;87.80
9371;DHT22;4725;48.384;8.984;2023-08-21T16:23:57;38.40;88.80
9371;DHT22;4725;48.384;8.984;2023-08-21T16:26:24;38.40;90.20
9371;DHT22;4725;48.384;8.984;2023-08-21T16:28:51;38.60;88.90
9371;DHT22;4725;48.384;8.984;2023-08-21T16:31:19;38.60;88.70
9371;DHT22;4725;48.384;8.984;2023-08-21T16:33:46;38.20;90.00
9371;DHT22;4725;48.384;8.984;2023-08-21T16:36:13;37.60;90.70
9371;DHT22;4725;48.384;8.984;2023-08-21T16:38:40;37.60;90.60
9371;DHT22;4725;48.384;8.984;2023-08-21T16:41:06;37.20;91.00
9371;DHT22;4725;48.384;8.984;2023-08-21T16:43:33;37.10;91.40
9371;DHT22;4725;48.384;8.984;2023-08-21T16:46:00;37.20;91.20
9371;DHT22;4725;48.384;8.984;2023-08-21T16:48:28;37.40;91.10
9371;DHT22;4725;48.384;8.984;2023-08-21T16:50:55;37.50;91.50
9371;DHT22;4725;48.384;8.984;2023-08-21T16:53:22;37.00;91.70
9371;DHT22;4725;48.384;8.984;2023-08-21T16:55:49;36.90;91.50